Time;durP1;ratioP1;P1;durP2;ratioP2;P2;SDS_P1;SDS_P2;PMS_P1;PMS_P2;Temp;Humidity;BMP_temperature;BMP_pressure;BME280_temperature;BME280_humidity;BME280_pressure;Samples;Min_cycle;Max_cycle;Signal;HPM_P1;HPM_P2
2023/01/22 00:01:27;;;;;;;13.50;7.45;;;;;;;-2.95;63.65;96384.50;5068498;28;20081;-64
2023/01/22 00:03:53;;;;;;;13.77;8.65;;;;;;;-4.37;64.48;96396.91;5065301;28;20093;-65
2023/01/22 00:06:19;;;;;;;16.85;10.18;;;;;;;-5.63;62.36;96404.50;5063503;28;20135;-64
2023/01/22 00:08:45;;;;;;;16.83;10.25;;;;;;;-4.38;66.12;96389.16;5072360;28;20525;-64
2023/01/22 00:11:11;;;;;;;12.18;7.50;;;;;;;-3.31;61.93;96379.22;5069019;28;20469;-64
2023/01/22 00:13:36;;;;;;;11.90;7.00;;;;;;;-3.41;63.46;96389.22;5077683;28;20107;-64
2023/01/22 00:16:01;;;;;;;12.07;8.20;;;;;;;-3.26;60.52;96378.97;5076477;28;20097;-64
2023/01/22 00:18:27;;;;;;;14.68;8.77;;;;;;;-4.72;60.55;96386.25;5076487;28;20096;-64
2023/01/22 00:20:53;;;;;;;13.57;8.52;;;;;;;-4.35;68.14;96387.28;5075469;28;20358;-64
2023/01/22 00:23:18;;;;;;;12.70;8.60;;;;;;;-4.23;61.42;96372.91;5063098;28;20101;-64
2023/01/22 00:25:44;;;;;;;9.30;6.63;;;;;;;-4.10;65.05;96381.03;5066967;28;20092;-64
2023/01/22 00:28:10;;;;;;;15.85;8.80;;;;;;;-3.96;63.37;96369.16;5066480;28;20587;-64
2023/01/22 00:30:35;;;;;;;14.73;8.93;;;;;;;-4.19;64.29;96368.41;5068760;28;20181;-64
2023/01/22 00:33:01;;;;;;;13.95;7.78;;;;;;;-3.62;59.12;96362.41;5066333;28;20088;-64
2023/01/22 00:35:26;;;;;;;15.07;10.02;;;;;;;-5.29;64.52;96377.25;5067680;28;20116;-64
2023/01/22 00:37:51;;;;;;;16.20;9.98;;;;;;;-5.01;68.36;96359.69;5064375;28;20104;-77
2023/01/22 00:40:17;;;;;;;13.55;9.73;;;;;;;-5.19;61.31;96367.34;5069123;28;20639;-77
2023/01/22 00:42:42;;;;;;;14.70;8.88;;;;;;;-4.90;72.16;96364.47;5049853;28;20189;-77
2023/01/22 00:45:08;;;;;;;16.58;10.13;;;;;;;-5.60;66.58;96375.84;5067987;28;20457;-77
2023/01/22 00:47:34;;;;;;;14.50;10.15;;;;;;;-6.29;67.25;96365.34;5066162;28;20157;-77
2023/01/22 00:50:00;;;;;;;18.65;11.65;;;;;;;-6.82;69.35;96350.75;5066994;28;20081;-77
2023/01/22 00:52:26;;;;;;;11.13;7.07;;;;;;;-4.31;65.51;96360.22;5067748;28;20108;-77
2023/01/22 00:54:51;;;;;;;14.30;9.23;;;;;;;-5.56;64.56;96373.94;5069405;28;20101;-77
2023/01/22 00:57:20;;;;;;;13.60;8.77;;;;;;;-5.59;63.28;96369.72;5067164;28;20349;-77
2023/01/22 00:59:48;;;;;;;15.77;8.93;;;;;;;-5.47;66.61;96364.06;5065559;28;20190;-77
2023/01/22 01:02:14;;;;;;;13.93;9.13;;;;;;;-5.62;67.52;96365.50;5071621;28;20080;-77
2023/01/22 01:04:39;;;;;;;13.70;8.98;;;;;;;-5.35;63.17;96352.38;5065511;28;20068;-77
2023/01/22 01:07:05;;;;;;;13.18;9.35;;;;;;;-4.86;60.73;96366.84;5065712;28;20113;-77
2023/01/22 01:09:30;;;;;;;13.20;7.97;;;;;;;-5.20;68.03;96370.81;5054496;28;20087;-77
2023/01/22 01:11:56;;;;;;;13.43;8.95;;;;;;;-6.05;70.12;96380.91;5068298;28;20127;-77
2023/01/22 01:14:21;;;;;;;14.15;9.30;;;;;;;-5.70;63.85;96377.06;5070280;28;20449;-77
2023/01/22 01:16:48;;;;;;;12.95;8.98;;;;;;;-6.11;65.28;96383.75;5070913;28;20073;-77
2023/01/22 01:19:16;;;;;;;12.48;8.15;;;;;;;-5.11;63.04;96369.59;5071203;28;20457;-77
2023/01/22 01:21:41;;;;;;;12.80;8.32;;;;;;;-5.86;63.41;96365.53;5070907;28;20083;-77
2023/01/22 01:24:07;;;;;;;11.10;7.45;;;;;;;-5.19;67.12;96364.75;5072789;28;20435;-77
2023/01/22 01:26:34;;;;;;;12.45;8.32;;;;;;;-5.87;67.57;96369.00;5049555;28;20123;-66
2023/01/22 01:29:00;;;;;;;10.27;7.32;;;;;;;-5.02;65.39;96366.66;5068224;28;20095;-67
2023/01/22 01:31:25;;;;;;;10.07;7.07;;;;;;;-5.24;65.63;96371.84;5071262;28;20109;-67
2023/01/22 01:33:51;;;;;;;11.05;6.63;;;;;;;-3.95;57.81;96370.81;5068661;28;20077;-68
2023/01/22 01:36:17;;;;;;;12.23;8.20;;;;;;;-5.15;59.96;96361.13;5069348;28;20112;-68
2023/01/22 01:38:43;;;;;;;11.95;8.13;;;;;;;-4.87;58.00;96356.53;5067216;28;20432;-68
2023/01/22 01:41:10;;;;;;;11.55;7.28;;;;;;;-5.47;65.60;96368.44;5068410;28;20072;-67
2023/01/22 01:43:36;;;;;;;9.65;6.40;;;;;;;-3.42;59.76;96368.44;5050843;28;20105;-68
2023/01/22 01:46:02;;;;;;;7.80;4.93;;;;;;;-4.08;60.65;96366.19;5068378;28;20119;-68
2023/01/22 01:48:38;;;;;;;10.18;6.68;;;;;;;-4.52;62.64;96364.59;5067203;28;20100;-68
2023/01/22 01:51:06;;;;;;;9.75;7.10;;;;;;;-4.99;64.34;96360.50;5055674;28;20558;-68
2023/01/22 01:53:32;;;;;;;10.32;7.50;;;;;;;-4.56;69.54;96361.28;5070207;28;20144;-67
2023/01/22 01:55:57;;;;;;;8.68;5.57;;;;;;;-2.60;56.31;96347.16;5068304;28;20097;-67
2023/01/22 01:58:23;;;;;;;9.25;6.43;;;;;;;-3.50;56.92;96350.56;5068780;28;20549;-67
2023/01/22 02:00:50;;;;;;;6.85;4.57;;;;;;;-2.40;56.99;96347.00;5069136;28;20071;-67
2023/01/22 02:03:16;;;;;;;8.63;5.70;;;;;;;-2.13;55.70;96354.28;5070933;28;20091;-67
2023/01/22 02:05:41;;;;;;;8.13;5.40;;;;;;;-2.86;53.74;96355.34;5070675;28;20096;-67
2023/01/22 02:08:06;;;;;;;8.82;5.13;;;;;;;-3.48;56.94;96360.91;5067741;28;20100;-67
2023/01/22 02:10:32;;;;;;;8.88;5.20;;;;;;;-3.40;55.83;96362.25;5066589;28;20282;-67
2023/01/22 02:13:06;;;;;;;5.88;3.92;;;;;;;-3.23;56.72;96358.00;5068927;28;20465;-67
2023/01/22 02:15:32;;;;;;;11.60;7.05;;;;;;;-3.75;57.11;96363.88;5051348;28;20426;-67
2023/01/22 02:17:57;;;;;;;7.35;4.93;;;;;;;-3.45;58.57;96363.38;5070316;28;20080;-67
2023/01/22 02:20:23;;;;;;;8.10;4.97;;;;;;;-4.13;58.26;96357.75;5070513;28;20198;-67
2023/01/22 02:22:48;;;;;;;7.72;4.88;;;;;;;-4.39;58.66;96357.13;5072981;28;20109;-67
2023/01/22 02:25:14;;;;;;;7.85;5.00;;;;;;;-4.10;58.86;96360.22;5071322;28;20100;-67
2023/01/22 02:27:39;;;;;;;9.25;6.20;;;;;;;-3.92;56.84;96355.09;5073617;28;20153;-67
2023/01/22 02:30:05;;;;;;;8.35;4.72;;;;;;;-4.53;58.88;96354.25;5069215;28;20446;-67
2023/01/22 02:32:31;;;;;;;7.38;4.90;;;;;;;-4.62;59.71;96345.94;5067944;28;20099;-67
2023/01/22 02:34:56;;;;;;;9.18;4.80;;;;;;;-4.50;59.41;96354.13;5068596;28;20101;-67
2023/01/22 02:37:21;;;;;;;8.43;5.63;;;;;;;-4.04;59.87;96348.69;5069799;28;20333;-67
2023/01/22 02:39:47;;;;;;;8.07;4.55;;;;;;;-3.73;61.61;96355.09;5068400;28;20091;-67
2023/01/22 02:42:12;;;;;;;9.57;6.25;;;;;;;-5.06;59.87;96357.31;5066940;28;20143;-67
2023/01/22 02:44:38;;;;;;;6.97;4.18;;;;;;;-4.11;59.59;96358.50;5074007;28;20085;-67
2023/01/22 02:47:03;;;;;;;6.05;4.25;;;;;;;-3.35;57.18;96355.97;5069742;28;20162;-67
2023/01/22 02:49:28;;;;;;;8.85;6.03;;;;;;;-3.36;55.11;96341.28;5072737;28;20072;-67
2023/01/22 02:51:54;;;;;;;7.00;5.28;;;;;;;-3.28;55.00;96336.53;5069169;28;20100;-67
2023/01/22 02:54:19;;;;;;;7.80;5.22;;;;;;;-2.89;52.53;96345.06;5071300;28;20080;-67
2023/01/22 02:56:45;;;;;;;6.40;3.88;;;;;;;-3.25;54.36;96349.41;5066959;28;20446;-67
2023/01/22 02:59:10;;;;;;;8.73;5.85;;;;;;;-4.06;58.12;96351.34;5066477;28;20097;-67
2023/01/22 03:01:35;;;;;;;7.30;5.40;;;;;;;-4.33;57.08;96346.47;5071521;28;20080;-67
2023/01/22 03:04:09;;;;;;;7.78;5.18;;;;;;;-3.45;55.17;96346.00;5074539;28;20108;-67
2023/01/22 03:06:35;;;;;;;4.05;3.10;;;;;;;-2.54;52.52;96339.84;5068841;28;20147;-67
2023/01/22 03:09:00;;;;;;;7.60;4.15;;;;;;;-2.86;56.99;96334.50;5070553;28;20069;-67
2023/01/22 03:11:27;;;;;;;7.80;5.07;;;;;;;-2.57;55.27;96337.44;5069711;28;20097;-67
2023/01/22 03:22:06;;;;;;;5.10;3.67;;;;;;;-3.57;58.41;96329.19;5070331;28;20142;-67
2023/01/22 03:24:31;;;;;;;3.47;2.97;;;;;;;-3.35;55.06;96322.13;5071976;28;20108;-67
2023/01/22 03:26:56;;;;;;;5.00;3.40;;;;;;;-3.10;55.28;96321.78;5065691;28;20101;-67
2023/01/22 03:29:22;;;;;;;8.55;3.88;;;;;;;-3.93;56.10;96327.38;5073119;28;20077;-67
2023/01/22 03:31:47;;;;;;;7.00;4.82;;;;;;;-3.15;53.53;96327.19;5069091;28;20442;-67
2023/01/22 03:34:14;;;;;;;4.75;3.50;;;;;;;-3.47;56.26;96336.59;5069831;28;20084;-67
2023/01/22 03:36:40;;;;;;;6.53;4.70;;;;;;;-3.47;56.02;96333.97;5065879;28;20069;-67
2023/01/22 03:39:05;;;;;;;6.25;3.38;;;;;;;-2.70;54.77;96333.75;5070648;28;20166;-67
2023/01/22 03:41:30;;;;;;;6.07;3.70;;;;;;;-3.38;56.25;96336.13;5067944;28;20127;-67
2023/01/22 03:44:00;;;;;;;6.22;4.53;;;;;;;-3.54;56.62;96344.66;5068215;28;20112;-67
2023/01/22 03:46:25;;;;;;;6.22;4.05;;;;;;;-3.50;57.91;96342.75;5067010;28;20088;-67
2023/01/22 03:48:51;;;;;;;6.30;4.38;;;;;;;-2.30;55.01;96336.94;5070414;28;20157;-67
2023/01/22 03:51:16;;;;;;;7.00;5.40;;;;;;;-4.04;54.82;96341.72;5065535;28;20109;-67
2023/01/22 03:53:42;;;;;;;5.15;3.33;;;;;;;-2.90;54.66;96341.66;5071134;28;20092;-67
2023/01/22 03:56:10;;;;;;;4.45;3.63;;;;;;;-2.82;56.29;96330.81;5067953;28;20098;-67
2023/01/22 03:58:35;;;;;;;5.18;3.70;;;;;;;-2.98;53.97;96338.56;5070606;28;20158;-67
2023/01/22 04:01:03;;;;;;;6.03;3.85;;;;;;;-2.34;55.94;96330.19;5065981;28;20525;-67
2023/01/22 04:03:28;;;;;;;4.15;3.45;;;;;;;-2.83;55.24;96339.56;5063832;28;20663;-67
2023/01/22 04:05:53;;;;;;;6.07;4.32;;;;;;;-3.69;55.98;96345.38;5070566;28;20088;-67
2023/01/22 04:08:19;;;;;;;5.65;4.20;;;;;;;-3.17;54.15;96336.00;5063948;28;20309;-67
2023/01/22 04:10:45;;;;;;;6.07;4.38;;;;;;;-4.77;57.58;96341.41;5069821;28;20183;-67
2023/01/22 04:13:10;;;;;;;5.72;4.55;;;;;;;-2.93;53.10;96340.94;5067891;28;20091;-67
2023/01/22 04:15:35;;;;;;;6.50;4.35;;;;;;;-3.10;59.46;96337.41;5068765;28;20103;-67
2023/01/22 04:18:01;;;;;;;6.65;4.85;;;;;;;-4.24;55.94;96344.38;5069625;28;20072;-67
2023/01/22 04:20:26;;;;;;;5.82;4.53;;;;;;;-3.81;55.07;96337.22;5067794;28;20626;-67
2023/01/22 04:22:52;;;;;;;6.45;4.90;;;;;;;-4.14;57.08;96339.59;5067561;28;20101;-67
2023/01/22 04:25:17;;;;;;;6.70;4.78;;;;;;;-4.51;58.38;96347.25;5069763;28;20081;-67
2023/01/22 04:27:45;;;;;;;6.43;4.90;;;;;;;-4.24;56.02;96341.75;5067133;28;20608;-67
2023/01/22 04:30:11;;;;;;;6.00;4.63;;;;;;;-5.12;60.85;96342.81;5064792;28;20561;-67
2023/01/22 04:32:36;;;;;;;6.22;4.45;;;;;;;-3.40;63.50;96338.81;5067265;28;20116;-67
2023/01/22 04:35:02;;;;;;;4.78;3.70;;;;;;;-3.10;57.84;96336.53;5066065;28;20649;-67
2023/01/22 04:37:28;;;;;;;5.60;4.35;;;;;;;-3.40;56.83;96345.75;5070924;28;20088;-67
2023/01/22 04:39:54;;;;;;;6.75;4.45;;;;;;;-4.13;60.31;96346.47;5067027;28;20679;-67
2023/01/22 04:42:19;;;;;;;5.93;4.53;;;;;;;-4.30;57.99;96351.53;5068651;28;20115;-67
2023/01/22 04:44:45;;;;;;;6.85;4.82;;;;;;;-6.36;66.76;96366.47;5070129;28;20445;-67
2023/01/22 04:47:10;;;;;;;6.18;5.00;;;;;;;-5.52;61.84;96352.16;5070161;28;20107;-67
2023/01/22 04:49:35;;;;;;;6.75;5.00;;;;;;;-5.26;63.39;96352.91;5069435;28;20093;-67
2023/01/22 04:52:01;;;;;;;7.03;5.28;;;;;;;-5.36;62.06;96362.81;5072034;28;20088;-67
2023/01/22 04:54:26;;;;;;;7.35;4.88;;;;;;;-5.39;60.64;96356.00;5073990;28;20080;-67
2023/01/22 04:56:52;;;;;;;6.57;5.13;;;;;;;-5.87;62.48;96356.03;5072760;28;20461;-67
2023/01/22 04:59:17;;;;;;;7.45;4.57;;;;;;;-4.63;60.35;96352.06;5068429;28;20923;-67
2023/01/22 05:01:43;;;;;;;5.82;4.50;;;;;;;-4.64;60.53;96352.97;5072757;28;20085;-67
2023/01/22 05:04:09;;;;;;;5.25;4.40;;;;;;;-4.27;57.88;96347.09;5068790;28;20100;-67
2023/01/22 05:06:34;;;;;;;6.15;4.13;;;;;;;-2.80;59.49;96339.44;5075633;28;20122;-67
2023/01/22 05:08:59;;;;;;;5.55;4.55;;;;;;;-4.36;57.80;96354.38;5070377;28;20080;-67
2023/01/22 05:11:25;;;;;;;5.72;4.60;;;;;;;-4.44;59.29;96339.09;5072749;28;20106;-67
2023/01/22 05:13:50;;;;;;;5.85;4.90;;;;;;;-4.53;57.55;96330.88;5068380;28;20104;-67
2023/01/22 05:16:16;;;;;;;5.78;4.57;;;;;;;-5.49;62.13;96337.34;5073960;28;20091;-67
2023/01/22 05:18:41;;;;;;;5.53;4.13;;;;;;;-3.48;57.53;96337.47;5070807;28;20582;-67
2023/01/22 05:21:06;;;;;;;5.55;4.63;;;;;;;-5.15;59.38;96344.66;5071622;28;20072;-67
2023/01/22 05:23:32;;;;;;;5.93;4.55;;;;;;;-5.31;62.37;96347.06;5073781;28;20117;-67
2023/01/22 05:25:57;;;;;;;6.63;4.40;;;;;;;-5.10;62.09;96346.19;5071192;28;20089;-67
2023/01/22 05:28:23;;;;;;;5.20;4.10;;;;;;;-4.12;63.27;96340.34;5072806;28;20589;-67
2023/01/22 05:30:48;;;;;;;5.05;4.25;;;;;;;-2.69;56.42;96341.47;5071441;28;20127;-67
2023/01/22 05:33:13;;;;;;;4.68;3.85;;;;;;;-3.07;59.39;96347.69;5067141;28;20072;-67
2023/01/22 05:35:39;;;;;;;6.45;5.20;;;;;;;-4.47;57.24;96354.00;5070913;28;20099;-67
2023/01/22 05:38:04;;;;;;;6.43;5.20;;;;;;;-4.29;57.03;96362.75;5073719;28;20415;-67
2023/01/22 05:40:30;;;;;;;5.70;4.63;;;;;;;-4.12;56.07;96351.63;5071769;28;20113;-67
2023/01/22 05:42:55;;;;;;;6.03;4.80;;;;;;;-4.58;57.18;96357.06;5069602;28;20107;-67
2023/01/22 05:45:21;;;;;;;5.57;4.38;;;;;;;-5.15;60.97;96361.13;5071690;28;20548;-67
2023/01/22 05:47:52;;;;;;;5.00;4.03;;;;;;;-3.48;55.16;96353.97;5071448;28;20115;-67
2023/01/22 05:50:18;;;;;;;5.40;4.00;;;;;;;-3.14;57.66;96348.88;5070362;28;20090;-67
2023/01/22 05:52:43;;;;;;;5.47;4.53;;;;;;;-4.05;55.92;96345.22;5067543;28;20082;-67
2023/01/22 05:55:09;;;;;;;5.63;4.35;;;;;;;-4.51;59.33;96352.44;5069685;28;20350;-67
2023/01/22 05:57:35;;;;;;;5.32;4.32;;;;;;;-3.28;55.18;96347.81;5067342;28;20076;-67
2023/01/22 06:00:01;;;;;;;6.00;4.53;;;;;;;-4.03;56.03;96345.16;5072651;28;20250;-67
2023/01/22 06:02:26;;;;;;;5.45;4.32;;;;;;;-4.00;61.01;96345.03;5070146;28;20085;-67
2023/01/22 06:04:51;;;;;;;5.00;4.00;;;;;;;-4.75;62.97;96350.84;5071563;28;20492;-67
2023/01/22 06:07:17;;;;;;;5.45;4.45;;;;;;;-3.78;59.07;96346.66;5069552;28;20118;-67
2023/01/22 06:09:42;;;;;;;5.07;4.05;;;;;;;-3.92;57.98;96352.47;5069288;28;20081;-67
2023/01/22 06:12:08;;;;;;;4.22;3.60;;;;;;;-2.90;57.51;96343.41;5074122;28;20476;-68
2023/01/22 06:14:33;;;;;;;4.75;3.90;;;;;;;-2.97;59.44;96336.78;5069516;28;20115;-67
2023/01/22 06:17:00;;;;;;;5.60;4.32;;;;;;;-3.17;54.89;96341.22;5072732;28;20083;-67
2023/01/22 06:19:25;;;;;;;5.53;4.53;;;;;;;-4.19;59.70;96347.59;5073062;28;20109;-68
2023/01/22 06:21:51;;;;;;;4.90;3.70;;;;;;;-3.54;62.22;96343.81;5076109;28;20562;-68
2023/01/22 06:24:16;;;;;;;5.28;4.35;;;;;;;-4.72;57.98;96335.09;5067880;28;20096;-68
2023/01/22 06:26:42;;;;;;;5.85;4.75;;;;;;;-3.95;58.67;96339.59;5075145;28;20111;-68
2023/01/22 06:29:07;;;;;;;6.07;4.20;;;;;;;-3.76;61.67;96341.38;5071553;28;20069;-67
2023/01/22 06:31:32;;;;;;;5.78;4.82;;;;;;;-5.59;60.51;96352.41;5073137;28;20679;-67
2023/01/22 06:33:58;;;;;;;5.72;4.20;;;;;;;-3.36;63.07;96341.28;5075789;28;20079;-67
2023/01/22 06:36:23;;;;;;;4.78;3.97;;;;;;;-3.07;55.44;96352.03;5064839;28;20140;-67
2023/01/22 06:38:49;;;;;;;6.50;4.88;;;;;;;-5.42;62.84;96350.91;5067483;28;20132;-68
2023/01/22 06:41:14;;;;;;;4.43;3.63;;;;;;;-3.99;64.79;96345.84;5061138;28;20091;-67
2023/01/22 06:43:39;;;;;;;4.55;3.47;;;;;;;-3.38;61.29;96349.16;5063205;28;20107;-68
2023/01/22 06:46:05;;;;;;;5.70;4.10;;;;;;;-4.48;63.90;96357.53;5068749;28;20097;-68
2023/01/22 06:48:30;;;;;;;5.97;4.78;;;;;;;-5.20;60.89;96358.69;5072661;28;20108;-68
2023/01/22 06:50:59;;;;;;;6.00;4.35;;;;;;;-4.25;61.19;96364.31;5069749;28;20304;-68
2023/01/22 06:53:24;;;;;;;4.23;3.57;;;;;;;-3.20;58.03;96351.78;5071556;28;20445;-67
2023/01/22 06:55:50;;;;;;;5.25;4.18;;;;;;;-4.27;58.51;96370.50;5070403;28;20097;-68
2023/01/22 06:58:15;;;;;;;6.47;4.97;;;;;;;-4.37;57.72;96370.91;5070663;28;20070;-68
2023/01/22 07:00:41;;;;;;;6.05;5.25;;;;;;;-5.24;59.67;96372.69;5067889;28;20564;-67
2023/01/22 07:03:06;;;;;;;5.82;4.85;;;;;;;-4.98;60.46;96372.56;5073480;28;20115;-68
2023/01/22 07:05:32;;;;;;;6.70;5.63;;;;;;;-6.13;62.56;96382.94;5066426;28;20069;-67
2023/01/22 07:07:58;;;;;;;5.45;4.53;;;;;;;-5.79;62.92;96379.13;5068590;28;20154;-68
2023/01/22 07:10:23;;;;;;;6.18;4.15;;;;;;;-4.74;65.85;96390.66;5069156;28;20083;-68
2023/01/22 07:12:52;;;;;;;5.03;4.40;;;;;;;-3.22;56.86;96388.34;5067983;28;20072;-68
2023/01/22 07:15:17;;;;;;;4.38;3.63;;;;;;;-2.89;60.05;96386.78;5064563;28;20350;-68
2023/01/22 07:17:48;;;;;;;5.18;3.83;;;;;;;-3.89;59.10;96388.78;5073733;28;20084;-68
2023/01/22 07:20:14;;;;;;;7.75;5.78;;;;;;;-5.34;60.06;96399.91;5067503;28;20112;-68
2023/01/22 07:22:39;;;;;;;6.50;5.15;;;;;;;-5.12;61.91;96388.69;5072955;28;20115;-67
2023/01/22 07:25:05;;;;;;;4.72;3.85;;;;;;;-4.43;64.42;96397.16;5071053;28;20080;-68
2023/01/22 07:27:33;;;;;;;4.55;3.58;;;;;;;-4.12;62.00;96400.19;5068158;28;20536;-68
2023/01/22 07:29:58;;;;;;;5.90;4.35;;;;;;;-3.32;56.36;96394.91;5073888;28;20127;-68
2023/01/22 07:32:24;;;;;;;6.50;4.43;;;;;;;-3.87;59.79;96405.16;5066668;28;20107;-68
2023/01/22 07:34:49;;;;;;;3.85;3.45;;;;;;;-2.91;60.36;96401.66;5066789;28;20343;-68
2023/01/22 07:37:14;;;;;;;4.07;3.28;;;;;;;-2.92;58.40;96402.59;5067962;28;20424;-68
2023/01/22 07:39:40;;;;;;;5.93;4.88;;;;;;;-3.76;55.87;96407.28;5070786;28;20108;-68
2023/01/22 07:42:05;;;;;;;5.95;4.05;;;;;;;-2.65;59.95;96409.97;5067985;28;20115;-68
2023/01/22 07:44:30;;;;;;;5.60;4.72;;;;;;;-3.46;55.83;96416.38;5070263;28;20553;-68
2023/01/22 07:46:56;;;;;;;5.63;4.50;;;;;;;-3.94;57.18;96415.00;5069233;28;20104;-68
2023/01/22 07:49:21;;;;;;;5.43;3.95;;;;;;;-2.53;56.81;96426.75;5070097;28;20075;-68
2023/01/22 07:51:47;;;;;;;5.90;4.35;;;;;;;-2.38;57.28;96422.53;5067182;28;20100;-68
2023/01/22 07:54:12;;;;;;;5.45;4.60;;;;;;;-2.24;54.58;96419.25;5062726;28;20666;-68
2023/01/22 07:56:38;;;;;;;5.95;4.85;;;;;;;-3.06;54.60;96426.69;5062728;28;20101;-68
2023/01/22 07:59:04;;;;;;;6.10;5.05;;;;;;;-3.28;55.43;96427.69;5061146;28;20092;-68
2023/01/22 08:01:30;;;;;;;5.53;4.68;;;;;;;-2.58;56.80;96426.97;5062456;28;20600;-68
2023/01/22 08:03:56;;;;;;;6.70;5.50;;;;;;;-2.79;54.35;96427.13;5063971;28;20115;-68
2023/01/22 08:06:21;;;;;;;5.20;3.95;;;;;;;-3.33;61.72;96433.13;5071526;28;20461;-68
2023/01/22 08:08:47;;;;;;;4.40;3.65;;;;;;;-2.44;56.30;96430.69;5067503;28;20118;-68
2023/01/22 08:11:13;;;;;;;6.13;5.05;;;;;;;-4.56;60.36;96439.28;5070542;28;20104;-68
2023/01/22 08:13:38;;;;;;;6.05;5.22;;;;;;;-5.10;64.12;96447.47;5072673;28;20298;-67
2023/01/22 08:16:04;;;;;;;4.20;3.65;;;;;;;-4.36;64.24;96439.34;5068160;28;20553;-68
2023/01/22 08:18:29;;;;;;;5.43;4.57;;;;;;;-2.44;56.57;96434.13;5068365;28;20087;-68
2023/01/22 08:20:54;;;;;;;4.28;3.63;;;;;;;-2.02;55.83;96434.66;5066783;28;20081;-68
2023/01/22 08:23:20;;;;;;;4.90;4.25;;;;;;;-2.18;55.22;96441.56;5072285;28;20457;-68
2023/01/22 08:25:45;;;;;;;5.57;4.38;;;;;;;-2.69;54.12;96439.69;5071083;28;20092;-68
2023/01/22 08:28:11;;;;;;;5.18;4.18;;;;;;;-4.16;61.05;96456.72;5074512;28;20104;-68
2023/01/22 08:30:36;;;;;;;5.90;5.00;;;;;;;-3.21;54.21;96446.47;5071990;28;20114;-68
2023/01/22 08:33:01;;;;;;;5.35;4.22;;;;;;;-3.63;58.20;96459.66;5067738;28;20084;-68
2023/01/22 08:35:28;;;;;;;6.05;4.82;;;;;;;-3.99;57.65;96457.72;5077030;28;20100;-68
2023/01/22 08:37:59;;;;;;;6.13;4.40;;;;;;;-3.00;61.06;96457.66;5073284;28;20325;-68
2023/01/22 08:40:24;;;;;;;3.40;3.10;;;;;;;-2.17;53.52;96461.53;5072105;28;20136;-67
2023/01/22 08:42:51;;;;;;;3.05;2.58;;;;;;;-2.27;53.67;96467.19;5075784;28;20115;-68
2023/01/22 08:45:16;;;;;;;6.30;5.22;;;;;;;-3.38;55.46;96474.16;5071271;28;20079;-68
2023/01/22 08:47:41;;;;;;;6.35;5.20;;;;;;;-4.07;60.13;96479.72;5074454;28;20109;-68
2023/01/22 08:50:07;;;;;;;3.67;3.10;;;;;;;-2.15;55.51;96468.34;5075178;28;20085;-68
2023/01/22 08:52:33;;;;;;;3.97;3.05;;;;;;;-2.50;54.40;96471.81;5075252;28;20507;-68
2023/01/22 08:54:58;;;;;;;4.20;2.90;;;;;;;-3.12;55.07;96469.53;5062783;28;20115;-68
2023/01/22 08:57:24;;;;;;;5.07;4.15;;;;;;;-3.58;58.33;96475.91;5072634;28;20107;-67
2023/01/22 08:59:49;;;;;;;4.65;3.45;;;;;;;-3.40;57.11;96478.56;5072430;28;20104;-68
2023/01/22 09:02:14;;;;;;;5.47;4.38;;;;;;;-4.01;62.29;96476.00;5070733;28;20069;-68
2023/01/22 09:04:40;;;;;;;4.75;3.92;;;;;;;-3.09;57.64;96473.75;5073243;28;20072;-68
2023/01/22 09:07:06;;;;;;;6.30;5.13;;;;;;;-3.23;55.19;96475.22;5072001;28;20152;-68
2023/01/22 09:09:32;;;;;;;5.40;4.32;;;;;;;-4.65;63.80;96483.84;5075110;28;20076;-68
2023/01/22 09:11:57;;;;;;;4.18;3.58;;;;;;;-3.03;60.02;96478.66;5070119;28;20465;-68
2023/01/22 09:14:22;;;;;;;6.78;5.25;;;;;;;-3.02;56.31;96472.53;5075663;28;20135;-68
2023/01/22 09:16:48;;;;;;;6.53;5.25;;;;;;;-3.60;55.31;96479.50;5071712;28;20092;-68
2023/01/22 09:19:13;;;;;;;6.53;5.18;;;;;;;-4.77;61.54;96482.56;5072513;28;20186;-68
2023/01/22 09:21:39;;;;;;;9.02;3.22;;;;;;;-4.63;64.26;96482.00;5071753;28;20076;-68
2023/01/22 09:24:05;;;;;;;4.13;3.67;;;;;;;-3.44;62.73;96477.03;5070416;28;20107;-68
2023/01/22 09:26:33;;;;;;;6.55;4.95;;;;;;;-3.22;55.90;96478.66;5069153;28;20492;-68
2023/01/22 09:28:59;;;;;;;5.13;4.00;;;;;;;-2.87;56.47;96478.78;5069676;28;20171;-68
2023/01/22 09:31:25;;;;;;;5.50;4.22;;;;;;;-3.08;58.36;96486.69;5072756;28;20100;-68
2023/01/22 09:33:51;;;;;;;6.38;4.70;;;;;;;-4.21;57.45;96479.47;5068167;28;20634;-68
2023/01/22 09:36:17;;;;;;;5.25;4.63;;;;;;;-3.72;62.16;96481.72;5072102;28;20873;-68
2023/01/22 09:38:42;;;;;;;3.95;2.75;;;;;;;-3.06;56.19;96482.25;5068374;28;20112;-68
2023/01/22 09:41:26;;;;;;;5.47;3.33;;;;;;;-3.11;55.50;96481.63;5068390;28;20150;-68
2023/01/22 09:43:58;;;;;;;3.58;2.88;;;;;;;-3.54;57.36;96492.22;5069914;28;20154;-68
2023/01/22 09:46:57;;;;;;;4.00;3.30;;;;;;;-3.16;55.17;96488.81;5073073;28;20496;-68
2023/01/22 09:49:28;;;;;;;2.88;2.58;;;;;;;-3.08;56.57;96488.44;5040135;28;20112;-68
2023/01/22 09:52:00;;;;;;;3.38;2.70;;;;;;;-3.12;55.32;96489.50;5070865;28;20105;-68
2023/01/22 09:54:25;;;;;;;3.03;2.72;;;;;;;-2.77;54.77;96493.09;5057285;28;20175;-68
2023/01/22 09:56:52;;;;;;;4.90;3.50;;;;;;;-2.64;56.99;96495.09;5092462;28;20432;-68
2023/01/22 09:59:19;;;;;;;4.22;3.17;;;;;;;-2.19;56.38;96495.53;5058052;28;20127;-68
2023/01/22 10:01:47;;;;;;;5.63;4.55;;;;;;;-3.30;55.95;96498.09;5052996;28;20079;-68
2023/01/22 10:04:28;;;;;;;3.45;3.10;;;;;;;-2.44;58.18;96499.31;5049197;28;20480;-68
2023/01/22 10:06:54;;;;;;;4.75;3.55;;;;;;;-1.69;56.34;96494.78;5067975;28;20127;-68
2023/01/22 10:09:20;;;;;;;3.47;2.75;;;;;;;-2.03;52.14;96489.53;5047163;28;20120;-68
2023/01/22 10:11:48;;;;;;;4.28;3.28;;;;;;;-1.80;55.49;96493.56;5067151;28;20111;-68
2023/01/22 10:14:15;;;;;;;3.75;2.97;;;;;;;-1.46;55.61;96489.22;5070205;28;20552;-68
2023/01/22 10:16:41;;;;;;;6.28;4.28;;;;;;;-1.80;51.00;96492.75;5072092;28;20137;-68
2023/01/22 10:19:19;;;;;;;3.28;2.67;;;;;;;-1.99;52.96;96494.53;5076518;28;20471;-68
2023/01/22 10:21:47;;;;;;;4.68;3.75;;;;;;;-2.03;52.53;96490.38;5074014;28;20068;-68
2023/01/22 10:24:12;;;;;;;3.88;3.47;;;;;;;-1.76;53.61;96492.50;5071335;28;20179;-68
2023/01/22 10:26:38;;;;;;;5.28;4.10;;;;;;;-2.55;51.87;96493.81;5068106;28;20113;-68
2023/01/22 10:29:30;;;;;;;3.45;2.80;;;;;;;-1.58;54.32;96500.31;5073016;28;20176;-68
2023/01/22 10:31:57;;;;;;;2.35;1.98;;;;;;;-2.06;53.14;96502.72;5070608;28;20104;-68
2023/01/22 10:34:32;;;;;;;5.25;3.75;;;;;;;-2.05;55.55;96500.06;5064035;28;20756;-68
2023/01/22 10:37:16;;;;;;;3.60;3.05;;;;;;;-1.89;52.70;96496.66;5073068;28;20145;-68
2023/01/22 10:39:49;;;;;;;4.05;3.60;;;;;;;-1.62;54.84;96494.38;5072208;28;20567;-67
2023/01/22 10:42:19;;;;;;;5.72;3.65;;;;;;;-2.53;52.45;96503.25;5072276;28;20424;-68
2023/01/22 10:44:44;;;;;;;5.15;3.70;;;;;;;-1.70;57.21;96495.72;5074523;28;20096;-68
2023/01/22 10:47:19;;;;;;;4.20;2.92;;;;;;;-0.62;53.07;96503.94;5067473;28;20711;-68
2023/01/22 10:49:45;;;;;;;3.70;3.30;;;;;;;-0.73;49.25;96501.94;5074096;28;20471;-68
2023/01/22 10:52:21;;;;;;;3.80;3.38;;;;;;;-2.55;53.55;96502.47;5065838;28;20098;-68
2023/01/22 10:54:51;;;;;;;3.72;3.17;;;;;;;-1.70;56.03;96495.72;5067030;28;20110;-68
2023/01/22 10:57:16;;;;;;;3.60;3.30;;;;;;;-2.47;53.96;96499.50;5065872;28;20167;-68
2023/01/22 10:59:51;;;;;;;4.07;2.93;;;;;;;-0.06;51.13;96491.16;5068858;28;20175;-68
2023/01/22 11:02:23;;;;;;;3.55;2.80;;;;;;;0.14;49.07;96501.41;5065635;28;20322;-68
2023/01/22 11:04:49;;;;;;;4.55;3.10;;;;;;;0.51;48.10;96498.38;5068239;28;20069;-68
2023/01/22 11:07:23;;;;;;;4.00;3.25;;;;;;;0.72;47.90;96489.19;5065834;28;20111;-68
2023/01/22 11:10:15;;;;;;;3.55;3.13;;;;;;;0.39;45.74;96487.69;5053060;28;20667;-68
2023/01/22 11:13:04;;;;;;;3.67;3.17;;;;;;;0.73;50.79;96495.28;5053166;28;20568;-68
2023/01/22 11:15:45;;;;;;;3.50;3.05;;;;;;;0.82;44.64;96494.69;5067455;28;20096;-68
2023/01/22 11:18:15;;;;;;;3.67;3.20;;;;;;;-0.22;48.60;96501.72;5051710;28;20712;-68
2023/01/22 11:20:56;;;;;;;4.03;3.20;;;;;;;0.46;51.81;96491.63;5069978;28;20081;-68
2023/01/22 11:23:59;;;;;;;3.47;2.90;;;;;;;-0.24;47.92;96497.50;5062707;28;20621;-68
2023/01/22 11:26:40;;;;;;;3.35;3.05;;;;;;;0.38;45.49;96493.03;5066839;28;20169;-68
2023/01/22 11:29:16;;;;;;;3.40;3.10;;;;;;;-0.50;52.09;96494.59;5066428;28;20068;-68
2023/01/22 11:32:00;;;;;;;4.05;3.20;;;;;;;-1.03;50.73;96505.28;5065768;28;20205;-68
2023/01/22 11:34:47;;;;;;;5.43;3.83;;;;;;;-0.75;54.79;96502.03;5064012;28;20095;-68
2023/01/22 11:37:14;;;;;;;4.60;3.63;;;;;;;0.63;52.37;96488.91;5066449;28;20502;-68
2023/01/22 11:39:46;;;;;;;3.70;3.28;;;;;;;-0.67;49.74;96491.16;5067003;28;20095;-69